Time;durP1;ratioP1;P1;durP2;ratioP2;P2;SDS_P1;SDS_P2;PMS_P1;PMS_P2;Temp;Humidity;BMP_temperature;BMP_pressure;BME280_temperature;BME280_humidity;BME280_pressure;Samples;Min_cycle;Max_cycle;Signal;HPM_P1;HPM_P2
2023/03/04 00:02:07;;;;;;;49.92;23.02;;;0.70;65.50;;;;;;4986250;28;114505;-78
2023/03/04 00:04:34;;;;;;;48.58;22.40;;;0.70;65.80;;;;;;4968126;28;119856;-78
2023/03/04 00:07:04;;;;;;;51.63;22.38;;;0.70;65.70;;;;;;5001947;28;115085;-79
2023/03/04 00:09:31;;;;;;;57.63;24.63;;;0.70;65.70;;;;;;5002769;28;116001;-79
2023/03/04 00:11:59;;;;;;;57.70;23.23;;;0.70;65.70;;;;;;4980170;28;114689;-79
2023/03/04 00:14:26;;;;;;;59.00;27.38;;;0.70;65.60;;;;;;4982549;28;114812;-79
2023/03/04 00:16:56;;;;;;;62.92;28.33;;;0.70;65.50;;;;;;4963932;28;115647;-80
2023/03/04 00:19:23;;;;;;;60.28;26.60;;;0.70;65.50;;;;;;4945964;28;118543;-79
2023/03/04 00:21:50;;;;;;;68.80;29.38;;;0.60;65.40;;;;;;4964776;28;114468;-80
2023/03/04 00:24:18;;;;;;;69.85;29.10;;;0.60;65.30;;;;;;4948446;28;114809;-80
2023/03/04 00:26:45;;;;;;;74.25;32.53;;;0.50;65.40;;;;;;4981620;28;115032;-79
2023/03/04 00:29:12;;;;;;;74.40;32.60;;;0.50;65.50;;;;;;4963464;28;114758;-79
2023/03/04 00:31:39;;;;;;;75.57;29.98;;;0.40;65.60;;;;;;4950576;28;114649;-79
2023/03/04 00:34:09;;;;;;;68.30;30.45;;;0.40;65.70;;;;;;4959432;28;115171;-79
2023/03/04 00:36:37;;;;;;;65.97;29.05;;;0.40;65.70;;;;;;5001472;28;115184;-79
2023/03/04 00:39:04;;;;;;;68.75;29.55;;;0.40;65.80;;;;;;4965970;28;114544;-79
2023/03/04 00:41:31;;;;;;;66.20;28.98;;;0.30;65.90;;;;;;4983920;28;114477;-79
2023/03/04 00:43:58;;;;;;;64.75;28.75;;;0.20;66.00;;;;;;4962194;28;115744;-79
2023/03/04 00:46:26;;;;;;;61.60;26.38;;;0.20;66.00;;;;;;4966501;28;117250;-77
2023/03/04 00:48:53;;;;;;;59.65;26.40;;;0.20;66.10;;;;;;5001378;28;114751;-80
2023/03/04 00:51:20;;;;;;;61.05;27.58;;;0.20;66.10;;;;;;5000493;28;114547;-77
2023/03/04 00:53:47;;;;;;;60.22;25.83;;;0.20;66.00;;;;;;4984148;28;115789;-77
2023/03/04 00:56:14;;;;;;;60.78;25.73;;;0.20;66.00;;;;;;4967538;28;115218;-80
2023/03/04 00:58:41;;;;;;;57.38;24.73;;;0.20;66.00;;;;;;4970923;28;114788;-79
2023/03/04 01:01:09;;;;;;;54.25;23.77;;;0.10;66.00;;;;;;4951822;28;114530;-78
2023/03/04 01:03:36;;;;;;;54.38;23.45;;;0.10;66.00;;;;;;4982010;28;114346;-78
2023/03/04 01:06:04;;;;;;;54.58;22.58;;;0.10;66.30;;;;;;4980576;28;115172;-77
2023/03/04 01:08:31;;;;;;;56.38;23.98;;;0.10;66.20;;;;;;4981376;28;115160;-77
2023/03/04 01:10:58;;;;;;;56.78;23.95;;;0.00;66.30;;;;;;4948395;28;114855;-77
2023/03/04 01:13:25;;;;;;;56.33;23.30;;;0.00;66.20;;;;;;4946451;28;114665;-78
2023/03/04 01:15:52;;;;;;;51.92;22.95;;;-0.10;66.30;;;;;;4961537;28;117114;-78
2023/03/04 01:18:20;;;;;;;51.78;24.33;;;0.00;66.30;;;;;;4974690;28;115691;-77
2023/03/04 01:20:47;;;;;;;58.10;23.60;;;0.00;66.20;;;;;;5000932;28;114424;-77
2023/03/04 01:23:14;;;;;;;53.70;22.50;;;-0.10;66.20;;;;;;5001764;28;114563;-79
2023/03/04 01:25:41;;;;;;;58.38;23.77;;;-0.10;66.40;;;;;;5000702;28;115126;-80
2023/03/04 01:28:09;;;;;;;57.70;23.90;;;-0.10;66.40;;;;;;5000357;28;114554;-79
2023/03/04 01:30:36;;;;;;;54.15;24.50;;;-0.10;66.50;;;;;;4951270;28;114536;-79
2023/03/04 01:33:03;;;;;;;56.63;24.77;;;-0.10;66.40;;;;;;4981378;28;116003;-79
2023/03/04 01:35:30;;;;;;;51.67;23.08;;;-0.10;66.30;;;;;;4962728;28;116846;-79
2023/03/04 01:37:58;;;;;;;56.30;22.27;;;-0.10;66.40;;;;;;4985724;28;115252;-79
2023/03/04 01:40:25;;;;;;;54.97;22.25;;;-0.20;66.40;;;;;;4986730;28;114488;-80
2023/03/04 01:42:53;;;;;;;55.60;22.88;;;-0.20;66.70;;;;;;4965349;28;115272;-77
2023/03/04 01:45:23;;;;;;;57.38;24.27;;;-0.20;66.60;;;;;;4965827;28;115100;-78
2023/03/04 01:47:50;;;;;;;53.88;23.90;;;-0.20;66.60;;;;;;4983098;28;114661;-78
2023/03/04 01:50:32;;;;;;;54.63;24.90;;;-0.20;66.60;;;;;;4960752;28;116324;-78
2023/03/04 01:53:00;;;;;;;52.70;21.58;;;-0.20;66.50;;;;;;4949931;28;114561;-78
2023/03/04 01:55:27;;;;;;;55.90;23.63;;;-0.20;66.50;;;;;;4936563;28;115147;-78
2023/03/04 01:57:56;;;;;;;56.40;21.63;;;-0.20;66.70;;;;;;4966414;28;114880;-78
2023/03/04 02:00:33;;;;;;;52.83;23.60;;;-0.20;66.70;;;;;;4948013;28;114653;-78
2023/03/04 02:03:06;;;;;;;55.70;22.75;;;-0.20;66.90;;;;;;4964159;28;114657;-77
2023/03/04 02:05:35;;;;;;;57.97;23.58;;;-0.30;66.70;;;;;;4948157;28;118004;-78
2023/03/04 02:08:02;;;;;;;52.70;23.27;;;-0.30;66.70;;;;;;4960534;28;115261;-77
2023/03/04 02:10:29;;;;;;;49.45;21.67;;;-0.30;66.80;;;;;;4947827;28;114629;-77
2023/03/04 02:12:58;;;;;;;50.55;23.92;;;-0.30;66.90;;;;;;4964564;28;114781;-79
2023/03/04 02:15:26;;;;;;;56.53;22.30;;;-0.30;66.90;;;;;;4947514;28;115104;-81
2023/03/04 02:17:53;;;;;;;55.58;22.73;;;-0.30;66.80;;;;;;4946646;28;117962;-80
2023/03/04 02:20:29;;;;;;;54.03;21.27;;;-0.40;66.90;;;;;;4947426;28;114843;-79
2023/03/04 02:23:35;;;;;;;51.30;22.00;;;-0.40;66.80;;;;;;4944106;28;114615;-79
2023/03/04 02:26:18;;;;;;;44.00;18.23;;;-0.40;66.80;;;;;;4953805;28;115195;-80
2023/03/04 02:28:50;;;;;;;53.60;22.15;;;-0.50;66.80;;;;;;4945238;28;114952;-79
2023/03/04 02:31:36;;;;;;;51.65;21.27;;;-0.50;67.10;;;;;;4947553;28;114336;-79
2023/03/04 02:34:12;;;;;;;55.22;22.02;;;-0.40;67.10;;;;;;4928602;28;114471;-79
2023/03/04 02:36:40;;;;;;;55.20;22.17;;;-0.50;67.20;;;;;;4931312;28;115487;-79
2023/03/04 02:39:32;;;;;;;51.03;22.98;;;-0.50;67.10;;;;;;4913774;28;114693;-79
2023/03/04 02:41:59;;;;;;;54.97;22.17;;;-0.50;67.30;;;;;;4949177;28;114819;-79
2023/03/04 02:44:29;;;;;;;49.85;20.50;;;-0.60;67.20;;;;;;4946887;28;114544;-80
2023/03/04 02:46:57;;;;;;;56.15;22.15;;;-0.60;67.20;;;;;;4932701;28;115064;-79
2023/03/04 02:49:27;;;;;;;47.88;20.73;;;-0.60;67.10;;;;;;4928634;28;115991;-79
2023/03/04 02:52:20;;;;;;;50.08;22.50;;;-0.60;67.20;;;;;;4933488;28;114568;-79
2023/03/04 02:54:47;;;;;;;48.15;20.52;;;-0.60;67.50;;;;;;4910632;28;114692;-79
2023/03/04 02:57:16;;;;;;;47.05;20.20;;;-0.70;67.30;;;;;;4946148;28;116073;-79
2023/03/04 02:59:47;;;;;;;45.70;19.65;;;-0.70;67.30;;;;;;4964378;28;115589;-79
2023/03/04 03:02:18;;;;;;;45.70;19.95;;;-0.70;67.30;;;;;;4968354;28;114384;-79
2023/03/04 03:04:45;;;;;;;46.83;19.02;;;-0.80;67.20;;;;;;4986645;28;114589;-79
2023/03/04 03:07:15;;;;;;;52.10;21.02;;;-0.80;67.20;;;;;;4952746;28;116945;-79
2023/03/04 03:09:43;;;;;;;46.20;19.33;;;-0.90;67.20;;;;;;4984556;28;114610;-79
2023/03/04 03:12:10;;;;;;;48.47;21.70;;;-0.90;67.30;;;;;;4985892;28;114438;-79
2023/03/04 03:14:37;;;;;;;45.78;19.17;;;-0.90;67.40;;;;;;4985421;28;114563;-79
2023/03/04 03:17:07;;;;;;;42.10;19.45;;;-1.00;67.40;;;;;;4971768;28;115484;-79
2023/03/04 03:19:34;;;;;;;49.42;20.40;;;-1.00;67.50;;;;;;4968717;28;114687;-79
2023/03/04 03:22:04;;;;;;;48.17;19.45;;;-1.00;67.50;;;;;;4954569;28;114469;-79
2023/03/04 03:24:31;;;;;;;42.30;18.95;;;-1.00;67.50;;;;;;5004563;28;114357;-79
2023/03/04 03:26:59;;;;;;;44.95;18.65;;;-1.00;67.60;;;;;;4966735;28;117273;-79
2023/03/04 03:29:26;;;;;;;41.35;18.73;;;-1.10;67.50;;;;;;5002321;28;115636;-79
2023/03/04 03:31:53;;;;;;;48.97;19.65;;;-1.00;67.60;;;;;;4955498;28;114493;-79
2023/03/04 03:34:20;;;;;;;45.35;19.33;;;-1.00;67.50;;;;;;4987326;28;114510;-79
2023/03/04 03:36:48;;;;;;;46.97;18.02;;;-1.00;67.40;;;;;;4986595;28;115158;-79
2023/03/04 03:39:16;;;;;;;42.35;18.67;;;-1.10;67.40;;;;;;4970766;28;114640;-79
2023/03/04 03:41:43;;;;;;;43.97;18.63;;;-1.10;67.60;;;;;;5005121;28;114595;-79
2023/03/04 03:44:10;;;;;;;42.72;18.92;;;-1.00;67.70;;;;;;4970949;28;114647;-79
2023/03/04 03:46:37;;;;;;;41.25;19.48;;;-1.00;67.60;;;;;;4986705;28;115160;-79
2023/03/04 03:49:04;;;;;;;50.40;21.88;;;-1.00;67.80;;;;;;4985930;28;114709;-79
2023/03/04 03:51:32;;;;;;;46.58;20.60;;;-1.00;68.10;;;;;;5003638;28;114645;-79
2023/03/04 03:53:59;;;;;;;46.50;21.15;;;-0.90;68.20;;;;;;4991894;28;114673;-79
2023/03/04 03:56:26;;;;;;;50.45;21.73;;;-0.90;68.30;;;;;;4948935;28;118942;-79
2023/03/04 03:58:53;;;;;;;50.20;23.98;;;-0.80;68.20;;;;;;4985754;28;114729;-79
2023/03/04 04:01:20;;;;;;;53.10;22.25;;;-0.80;68.10;;;;;;4992468;28;114442;-79
2023/03/04 04:03:47;;;;;;;54.53;24.77;;;-0.80;68.20;;;;;;4986168;28;114758;-79
2023/03/04 04:06:14;;;;;;;52.70;25.27;;;-0.80;68.10;;;;;;4967665;28;115597;-79
2023/03/04 04:08:42;;;;;;;56.60;23.13;;;-0.80;68.10;;;;;;4968003;28;114753;-79
2023/03/04 04:11:10;;;;;;;56.47;24.88;;;-0.70;68.00;;;;;;4985509;28;114630;-79
2023/03/04 04:13:38;;;;;;;50.58;22.52;;;-0.60;67.90;;;;;;5003228;28;114727;-79
2023/03/04 04:16:06;;;;;;;47.47;20.27;;;-0.60;67.80;;;;;;4958029;28;118843;-79
2023/03/04 04:18:33;;;;;;;51.35;22.13;;;-0.70;67.90;;;;;;5002640;28;114776;-79
2023/03/04 04:21:00;;;;;;;46.08;19.23;;;-0.60;67.70;;;;;;5003030;28;114747;-79
2023/03/04 04:23:28;;;;;;;48.95;20.67;;;-0.70;67.70;;;;;;4968107;28;114565;-80
2023/03/04 04:25:55;;;;;;;44.20;19.15;;;-0.70;67.60;;;;;;4976601;28;115379;-79
2023/03/04 04:28:23;;;;;;;50.58;19.67;;;-0.70;67.60;;;;;;4984701;28;114521;-79
2023/03/04 04:30:50;;;;;;;45.80;20.50;;;-0.70;67.40;;;;;;4968338;28;115612;-79
2023/03/04 04:33:18;;;;;;;44.03;19.65;;;-0.70;67.20;;;;;;5002034;28;114485;-79
2023/03/04 04:35:45;;;;;;;42.50;17.95;;;-0.70;67.30;;;;;;4984329;28;115034;-79
2023/03/04 04:38:12;;;;;;;41.50;19.40;;;-0.80;67.30;;;;;;5001371;28;115867;-79
2023/03/04 04:40:39;;;;;;;44.63;20.77;;;-0.70;67.50;;;;;;4991327;28;114452;-79
2023/03/04 04:43:06;;;;;;;50.92;20.65;;;-0.70;67.40;;;;;;4983068;28;114376;-78
2023/03/04 04:45:34;;;;;;;40.75;19.75;;;-0.80;67.50;;;;;;4964502;28;115100;-80
2023/03/04 04:48:01;;;;;;;43.97;19.45;;;-0.80;67.40;;;;;;4964124;28;114841;-79
2023/03/04 04:50:28;;;;;;;45.80;19.83;;;-0.70;67.50;;;;;;4984209;28;117565;-79
2023/03/04 04:52:58;;;;;;;49.38;20.17;;;-0.80;67.30;;;;;;5003368;28;114417;-79
2023/03/04 04:55:27;;;;;;;46.47;20.85;;;-0.70;67.30;;;;;;5001831;28;115077;-79
2023/03/04 04:57:54;;;;;;;49.13;19.50;;;-0.80;67.40;;;;;;4999093;28;115450;-79
2023/03/04 05:00:21;;;;;;;46.75;19.75;;;-0.80;67.30;;;;;;5002016;28;114376;-79
2023/03/04 05:02:50;;;;;;;46.08;20.08;;;-0.80;67.40;;;;;;4967765;28;114766;-79
2023/03/04 05:05:18;;;;;;;48.00;20.00;;;-0.80;67.40;;;;;;4967568;28;116127;-79
2023/03/04 05:07:45;;;;;;;50.20;20.30;;;-0.70;67.30;;;;;;4985352;28;116180;-79
2023/03/04 05:10:12;;;;;;;46.88;19.98;;;-0.70;67.30;;;;;;4985991;28;116362;-79
2023/03/04 05:12:39;;;;;;;46.90;23.17;;;-0.80;67.30;;;;;;5003662;28;114554;-78
2023/03/04 05:15:07;;;;;;;43.30;19.30;;;-0.80;67.40;;;;;;4984687;28;115348;-79
2023/03/04 05:17:34;;;;;;;48.53;21.00;;;-0.70;67.40;;;;;;4958789;28;117679;-79
2023/03/04 05:20:02;;;;;;;47.55;19.35;;;-0.70;67.40;;;;;;4965125;28;114496;-79
2023/03/04 05:22:29;;;;;;;43.75;19.30;;;-0.70;67.30;;;;;;4973112;28;114471;-79
2023/03/04 05:24:56;;;;;;;46.97;20.15;;;-0.70;67.40;;;;;;4980668;28;115574;-78
2023/03/04 05:27:23;;;;;;;44.70;20.20;;;-0.70;67.20;;;;;;5001471;28;114721;-78
2023/03/04 05:29:51;;;;;;;48.20;19.83;;;-0.60;67.30;;;;;;4965552;28;114650;-78
2023/03/04 05:32:18;;;;;;;42.78;19.30;;;-0.70;67.20;;;;;;5002358;28;114349;-78
2023/03/04 05:34:45;;;;;;;47.08;20.90;;;-0.70;67.10;;;;;;5001050;28;115027;-79
2023/03/04 05:37:12;;;;;;;52.33;21.67;;;-0.70;67.00;;;;;;4983575;28;114644;-79
2023/03/04 05:39:39;;;;;;;48.83;21.75;;;-0.60;67.00;;;;;;5001532;28;114486;-79
2023/03/04 05:42:08;;;;;;;47.80;19.92;;;-0.70;67.10;;;;;;5002193;28;114797;-78
2023/03/04 05:44:35;;;;;;;50.40;21.77;;;-0.60;67.10;;;;;;4984069;28;115010;-78
2023/03/04 05:47:02;;;;;;;49.33;21.40;;;-0.60;67.20;;;;;;5001959;28;114784;-79
2023/03/04 05:49:29;;;;;;;48.90;22.33;;;-0.60;67.20;;;;;;4967824;28;114732;-78
2023/03/04 05:51:56;;;;;;;46.40;19.92;;;-0.60;67.30;;;;;;5002999;28;116150;-78
2023/03/04 05:54:24;;;;;;;50.42;21.48;;;-0.60;67.20;;;;;;5000708;28;115310;-79
2023/03/04 05:56:51;;;;;;;51.33;22.70;;;-0.60;67.10;;;;;;4984829;28;114835;-79
2023/03/04 05:59:19;;;;;;;55.40;23.13;;;-0.60;67.10;;;;;;4968046;28;115119;-78
2023/03/04 06:01:47;;;;;;;44.95;21.73;;;-0.60;67.10;;;;;;4999526;28;115928;-79
2023/03/04 06:04:14;;;;;;;49.55;21.88;;;-0.60;67.10;;;;;;4950720;28;118048;-79
2023/03/04 06:06:41;;;;;;;51.35;23.00;;;-0.60;67.00;;;;;;4983822;28;114623;-79
2023/03/04 06:09:08;;;;;;;54.83;24.10;;;-0.60;67.00;;;;;;4984917;28;116870;-79
2023/03/04 06:11:35;;;;;;;55.33;24.02;;;-0.60;67.00;;;;;;4990776;28;114733;-79
2023/03/04 06:14:03;;;;;;;49.08;22.88;;;-0.50;67.00;;;;;;4963313;28;117142;-79
2023/03/04 06:16:30;;;;;;;54.90;24.38;;;-0.40;67.10;;;;;;4981411;28;115459;-79
2023/03/04 06:18:57;;;;;;;51.92;23.98;;;-0.40;66.90;;;;;;4964556;28;116984;-78
2023/03/04 06:21:24;;;;;;;52.17;23.02;;;-0.40;66.90;;;;;;4982082;28;114518;-79
2023/03/04 06:23:51;;;;;;;50.22;22.02;;;-0.40;67.00;;;;;;4946198;28;115307;-79
2023/03/04 06:26:19;;;;;;;48.88;22.17;;;-0.30;66.90;;;;;;4980634;28;114598;-78
2023/03/04 06:28:46;;;;;;;55.75;24.80;;;-0.30;66.80;;;;;;4962542;28;114497;-79
2023/03/04 06:31:13;;;;;;;51.90;23.92;;;-0.20;66.60;;;;;;4967452;28;114676;-79
2023/03/04 06:33:40;;;;;;;49.55;22.75;;;-0.20;66.40;;;;;;4966161;28;115093;-78
2023/03/04 06:36:07;;;;;;;51.17;23.20;;;-0.10;66.40;;;;;;4949380;28;115472;-79
2023/03/04 06:38:35;;;;;;;53.13;23.67;;;-0.20;66.50;;;;;;4966797;28;114761;-78
2023/03/04 06:41:11;;;;;;;55.35;23.42;;;-0.10;66.30;;;;;;4982905;28;114541;-78
2023/03/04 06:43:38;;;;;;;53.38;24.80;;;-0.20;66.30;;;;;;4982341;28;115143;-79
2023/03/04 06:46:06;;;;;;;57.00;26.50;;;-0.20;66.50;;;;;;5000851;28;116999;-78
2023/03/04 06:48:33;;;;;;;57.83;25.90;;;-0.20;66.50;;;;;;4943989;28;115668;-78
2023/03/04 06:51:06;;;;;;;60.53;25.30;;;-0.10;66.60;;;;;;4947583;28;114409;-78
2023/03/04 06:53:34;;;;;;;53.58;24.02;;;-0.10;66.60;;;;;;4980509;28;115017;-78
2023/03/04 06:56:01;;;;;;;50.83;23.70;;;-0.10;66.70;;;;;;4982715;28;115723;-79
2023/03/04 06:58:28;;;;;;;51.70;23.85;;;-0.10;66.80;;;;;;4999007;28;117110;-78
2023/03/04 07:01:13;;;;;;;54.05;24.67;;;-0.10;66.70;;;;;;5001018;28;114916;-79
2023/03/04 07:03:40;;;;;;;55.47;24.10;;;-0.10;66.90;;;;;;4983917;28;115127;-79
2023/03/04 07:06:10;;;;;;;50.30;24.55;;;-0.10;66.90;;;;;;4983527;28;114987;-79
2023/03/04 07:08:37;;;;;;;55.85;25.73;;;-0.10;66.90;;;;;;4967461;28;114645;-79
2023/03/04 07:11:04;;;;;;;50.10;22.98;;;0.00;66.90;;;;;;5001707;28;114684;-79
2023/03/04 07:13:34;;;;;;;49.53;24.17;;;0.00;66.80;;;;;;4989421;28;116336;-79
2023/03/04 07:16:01;;;;;;;46.50;23.38;;;0.00;66.70;;;;;;5000860;28;114688;-79
2023/03/04 07:18:28;;;;;;;53.03;24.52;;;0.10;66.80;;;;;;4983115;28;114549;-78
2023/03/04 07:20:55;;;;;;;45.65;21.75;;;0.00;66.80;;;;;;4984206;28;114846;-79
2023/03/04 07:23:22;;;;;;;53.53;23.67;;;0.10;66.80;;;;;;4982897;28;115037;-79
2023/03/04 07:25:51;;;;;;;45.10;22.73;;;0.10;66.70;;;;;;5001026;28;114617;-77
2023/03/04 07:28:18;;;;;;;53.05;23.98;;;0.10;66.70;;;;;;4978997;28;116732;-79
2023/03/04 07:30:45;;;;;;;56.30;24.02;;;0.10;66.60;;;;;;4981599;28;114513;-79
2023/03/04 07:33:13;;;;;;;51.92;23.30;;;0.20;66.50;;;;;;4981105;28;115054;-78
2023/03/04 07:35:41;;;;;;;51.33;25.10;;;0.20;66.50;;;;;;4980832;28;114622;-77
2023/03/04 07:38:08;;;;;;;51.03;22.55;;;0.20;66.60;;;;;;4964182;28;114545;-83
2023/03/04 07:40:35;;;;;;;44.67;22.88;;;0.20;66.40;;;;;;4983316;28;114229;-79
2023/03/04 07:43:03;;;;;;;48.22;23.08;;;0.30;66.50;;;;;;4983417;28;115296;-79
2023/03/04 07:45:30;;;;;;;51.28;23.63;;;0.40;66.50;;;;;;4949515;28;115638;-78
2023/03/04 07:48:02;;;;;;;48.15;23.60;;;0.40;66.30;;;;;;4984808;28;114325;-79
2023/03/04 07:50:29;;;;;;;47.58;24.60;;;0.40;66.40;;;;;;4984700;28;114766;-78
2023/03/04 07:52:57;;;;;;;46.90;22.13;;;0.50;66.50;;;;;;4983926;28;115303;-80
2023/03/04 07:55:24;;;;;;;47.80;24.23;;;0.50;66.40;;;;;;4966315;28;114691;-79
2023/03/04 07:57:51;;;;;;;48.38;24.30;;;0.50;66.20;;;;;;4966613;28;114539;-79
2023/03/04 08:00:19;;;;;;;57.15;24.63;;;0.60;65.90;;;;;;4966560;28;114908;-79
2023/03/04 08:02:46;;;;;;;53.22;24.33;;;0.60;65.90;;;;;;4993266;28;116634;-78
2023/03/04 08:05:16;;;;;;;47.22;23.02;;;0.60;65.90;;;;;;5003530;28;115330;-80
2023/03/04 08:07:44;;;;;;;51.58;23.90;;;0.60;65.80;;;;;;4986062;28;114819;-79
2023/03/04 08:10:11;;;;;;;46.92;22.63;;;0.70;66.10;;;;;;4986068;28;114479;-79
2023/03/04 08:12:38;;;;;;;45.97;23.27;;;0.70;65.90;;;;;;5003600;28;115521;-78
2023/03/04 08:15:06;;;;;;;48.47;23.73;;;0.80;65.80;;;;;;5003379;28;114723;-80
2023/03/04 08:17:34;;;;;;;46.40;23.17;;;0.80;65.80;;;;;;4985277;28;114988;-79
2023/03/04 08:20:01;;;;;;;48.17;24.63;;;0.80;65.60;;;;;;5003807;28;114373;-78
2023/03/04 08:22:28;;;;;;;53.92;25.23;;;0.80;65.50;;;;;;5000043;28;115027;-79
2023/03/04 08:24:56;;;;;;;49.15;24.10;;;0.80;65.40;;;;;;5002543;28;114810;-79
2023/03/04 08:27:23;;;;;;;47.85;24.10;;;0.80;65.50;;;;;;4986227;28;114757;-79
2023/03/04 08:29:50;;;;;;;50.38;24.23;;;0.90;65.60;;;;;;5003769;28;114323;-79
2023/03/04 08:32:18;;;;;;;52.08;26.25;;;0.90;65.50;;;;;;5002540;28;115039;-78
2023/03/04 08:34:46;;;;;;;57.60;26.58;;;0.90;65.50;;;;;;4983764;28;114798;-79
2023/03/04 08:37:13;;;;;;;52.58;24.95;;;1.00;65.40;;;;;;4977932;28;114581;-79
2023/03/04 08:39:40;;;;;;;49.85;23.73;;;1.00;65.10;;;;;;4969804;28;114661;-79
2023/03/04 08:42:07;;;;;;;57.42;26.83;;;0.90;65.10;;;;;;4998535;28;115296;-79
2023/03/04 08:44:35;;;;;;;47.63;24.92;;;1.00;65.00;;;;;;4985044;28;115111;-78
2023/03/04 08:47:02;;;;;;;51.50;25.52;;;1.00;64.90;;;;;;4985818;28;114600;-80
2023/03/04 08:49:31;;;;;;;45.67;24.40;;;1.00;64.70;;;;;;4973144;28;115089;-79
2023/03/04 08:52:00;;;;;;;48.85;24.60;;;0.90;64.70;;;;;;4995998;28;115173;-79
2023/03/04 08:54:27;;;;;;;48.58;23.48;;;0.90;64.70;;;;;;4982842;28;114700;-78
2023/03/04 08:56:54;;;;;;;53.85;25.05;;;0.90;64.60;;;;;;4950825;28;114621;-78
2023/03/04 08:59:21;;;;;;;49.25;25.10;;;0.80;64.30;;;;;;4966268;28;116509;-78
2023/03/04 09:02:06;;;;;;;49.05;24.00;;;0.80;64.40;;;;;;4962223;28;115562;-79
2023/03/04 09:04:33;;;;;;;54.20;25.48;;;0.80;64.50;;;;;;4945009;28;115247;-79
2023/03/04 09:07:00;;;;;;;51.42;25.33;;;0.80;64.70;;;;;;4962970;28;114776;-79
2023/03/04 09:09:28;;;;;;;48.15;25.23;;;0.80;64.60;;;;;;4963044;28;114544;-78
2023/03/04 09:11:55;;;;;;;50.60;26.02;;;0.80;64.50;;;;;;4929114;28;115225;-78
2023/03/04 09:14:25;;;;;;;49.25;25.65;;;0.80;64.60;;;;;;4944871;28;116772;-78
2023/03/04 09:16:52;;;;;;;50.72;25.88;;;0.80;64.60;;;;;;4983174;28;114457;-79
2023/03/04 09:19:19;;;;;;;50.85;24.83;;;0.90;64.40;;;;;;4974607;28;114515;-78
2023/03/04 09:21:46;;;;;;;53.25;26.50;;;0.90;64.30;;;;;;4964072;28;115750;-78
2023/03/04 09:24:15;;;;;;;50.85;25.58;;;0.90;64.20;;;;;;4981719;28;114765;-78
2023/03/04 09:26:42;;;;;;;52.35;26.65;;;0.80;64.20;;;;;;4965109;28;114701;-77
2023/03/04 09:29:09;;;;;;;47.47;25.90;;;0.80;64.10;;;;;;4982783;28;114468;-77
2023/03/04 09:31:36;;;;;;;51.75;25.95;;;0.80;64.40;;;;;;4930529;28;118396;-77
2023/03/04 09:34:04;;;;;;;48.90;25.88;;;0.80;64.20;;;;;;4948176;28;118407;-77
2023/03/04 09:36:34;;;;;;;48.85;25.20;;;0.80;64.20;;;;;;4965141;28;114508;-78
2023/03/04 09:39:05;;;;;;;46.95;24.00;;;0.80;64.30;;;;;;4933196;28;114502;-77
2023/03/04 09:41:43;;;;;;;52.17;25.08;;;0.80;64.30;;;;;;4981759;28;116284;-77
2023/03/04 09:44:39;;;;;;;42.92;23.13;;;0.90;64.40;;;;;;4980004;28;115873;-78
2023/03/04 09:47:14;;;;;;;47.30;23.10;;;0.90;64.20;;;;;;4949446;28;114627;-78
2023/03/04 09:49:56;;;;;;;42.55;21.67;;;0.80;64.00;;;;;;4933739;28;114351;-78
2023/03/04 09:53:03;;;;;;;42.25;22.98;;;0.80;63.90;;;;;;4959141;28;115229;-78
2023/03/04 09:55:42;;;;;;;41.15;22.35;;;0.80;64.00;;;;;;4939374;28;117829;-78
2023/03/04 09:58:45;;;;;;;42.47;22.60;;;0.80;64.20;;;;;;4949207;28;114613;-78
2023/03/04 10:01:55;;;;;;;44.10;23.10;;;0.90;64.30;;;;;;5001316;28;114650;-77
2023/03/04 10:04:43;;;;;;;48.33;24.50;;;0.90;64.20;;;;;;4926641;28;115709;-78
2023/03/04 10:07:27;;;;;;;48.92;24.92;;;1.00;64.20;;;;;;4935446;28;115653;-78
2023/03/04 10:10:16;;;;;;;52.10;26.90;;;1.10;64.10;;;;;;4914605;28;114681;-78
2023/03/04 10:12:45;;;;;;;54.47;27.52;;;1.00;63.70;;;;;;4945681;28;114491;-78
2023/03/04 10:15:38;;;;;;;56.05;28.27;;;1.00;63.90;;;;;;4932654;28;115145;-78
2023/03/04 10:18:26;;;;;;;55.40;26.88;;;1.10;63.70;;;;;;4984065;28;114310;-78
2023/03/04 10:20:57;;;;;;;52.28;27.38;;;1.20;64.00;;;;;;4941367;28;114536;-78
2023/03/04 10:23:25;;;;;;;52.42;27.25;;;1.20;63.90;;;;;;4968486;28;114746;-78
2023/03/04 10:25:53;;;;;;;47.83;27.73;;;1.40;64.00;;;;;;4984127;28;115210;-78
2023/03/04 10:28:24;;;;;;;49.53;26.80;;;1.50;63.80;;;;;;4967544;28;114666;-78
2023/03/04 10:30:57;;;;;;;45.17;25.77;;;1.70;63.30;;;;;;4984125;28;114747;-80
2023/03/04 10:33:29;;;;;;;41.88;22.30;;;1.80;62.90;;;;;;5002551;28;114247;-79
2023/03/04 10:36:28;;;;;;;42.00;23.92;;;1.80;62.60;;;;;;4967765;28;115116;-78
2023/03/04 10:39:05;;;;;;;41.90;21.80;;;1.90;62.20;;;;;;4999853;28;115258;-80
2023/03/04 10:41:32;;;;;;;39.60;23.38;;;2.10;62.30;;;;;;4947812;28;114435;-80
2023/03/04 10:44:14;;;;;;;44.20;23.23;;;2.20;62.10;;;;;;4964190;28;114362;-80
2023/03/04 10:46:44;;;;;;;41.03;22.35;;;2.40;61.50;;;;;;4962995;28;115277;-79
2023/03/04 10:49:16;;;;;;;44.40;24.13;;;2.50;61.40;;;;;;4963749;28;114851;-80
2023/03/04 10:51:46;;;;;;;45.05;22.08;;;2.60;61.40;;;;;;4964961;28;114461;-80
2023/03/04 10:54:40;;;;;;;38.92;21.90;;;2.60;61.00;;;;;;4981814;28;114374;-79
2023/03/04 10:57:41;;;;;;;44.72;24.08;;;2.70;60.60;;;;;;4947152;28;115541;-79
2023/03/04 11:00:17;;;;;;;39.85;22.10;;;2.70;60.10;;;;;;4950140;28;114786;-79
2023/03/04 11:02:48;;;;;;;40.85;22.20;;;2.70;59.60;;;;;;4943043;28;114555;-79
2023/03/04 11:05:23;;;;;;;41.70;23.52;;;2.70;59.60;;;;;;4944094;28;114501;-79
2023/03/04 11:07:58;;;;;;;39.83;22.40;;;2.70;59.40;;;;;;4943287;28;116729;-79
2023/03/04 11:10:30;;;;;;;41.28;22.23;;;2.70;59.60;;;;;;4943245;28;118087;-79
2023/03/04 11:12:57;;;;;;;43.40;23.92;;;2.80;59.50;;;;;;4943824;28;114617;-79
2023/03/04 11:15:27;;;;;;;37.72;21.73;;;2.80;59.50;;;;;;4977426;28;114496;-79
2023/03/04 11:18:33;;;;;;;36.75;20.35;;;2.90;59.10;;;;;;4966170;28;117307;-78
2023/03/04 11:21:00;;;;;;;40.03;21.88;;;2.90;58.50;;;;;;4927810;28;115817;-79
2023/03/04 11:23:50;;;;;;;39.33;23.98;;;2.90;58.80;;;;;;4947641;28;114553;-79
2023/03/04 11:26:23;;;;;;;41.08;22.80;;;2.90;58.90;;;;;;4928848;28;114485;-78
2023/03/04 11:29:10;;;;;;;36.85;21.65;;;3.00;58.80;;;;;;4934537;28;115579;-78
2023/03/04 11:32:00;;;;;;;35.40;20.63;;;3.00;58.50;;;;;;4951477;28;115100;-79
2023/03/04 11:34:36;;;;;;;34.00;19.90;;;3.00;58.30;;;;;;4944382;28;114783;-80
2023/03/04 11:37:50;;;;;;;42.17;22.60;;;3.00;58.30;;;;;;4984786;28;114557;-79
2023/03/04 11:40:32;;;;;;;38.78;22.92;;;3.00;58.70;;;;;;4884560;28;115398;-79
2023/03/04 11:43:16;;;;;;;34.55;20.38;;;3.10;58.40;;;;;;4942770;28;114691;-78
2023/03/04 11:46:17;;;;;;;37.83;19.95;;;3.10;58.40;;;;;;4937720;28;114481;-77
2023/03/04 11:48:50;;;;;;;38.30;21.60;;;3.20;58.00;;;;;;4966688;28;114616;-78
2023/03/04 11:51:51;;;;;;;37.10;21.15;;;3.20;58.40;;;;;;4983560;28;115477;-78
2023/03/04 11:54:39;;;;;;;36.90;20.13;;;3.20;57.80;;;;;;4965924;28;114767;-78
2023/03/04 11:57:32;;;;;;;35.55;21.17;;;3.20;57.90;;;;;;4966087;28;114514;-79
2023/03/04 12:00:36;;;;;;;35.10;20.08;;;3.30;57.40;;;;;;4962687;28;114578;-79
2023/03/04 12:03:41;;;;;;;36.85;20.33;;;3.30;57.20;;;;;;4984606;28;114937;-79
2023/03/04 12:06:19;;;;;;;38.67;20.63;;;3.40;57.00;;;;;;4983265;28;114675;-79
2023/03/04 12:09:14;;;;;;;37.63;19.80;;;3.30;57.10;;;;;;4966451;28;114506;-79
2023/03/04 12:11:47;;;;;;;40.03;20.45;;;3.40;56.80;;;;;;4966238;28;114710;-79
2023/03/04 12:14:49;;;;;;;39.05;21.63;;;3.30;57.10;;;;;;4983199;28;115080;-79
2023/03/04 12:18:02;;;;;;;34.92;19.63;;;3.40;57.00;;;;;;4930049;28;114983;-80
2023/03/04 12:20:46;;;;;;;36.28;20.30;;;3.50;56.70;;;;;;4936338;28;114457;-79
2023/03/04 12:23:39;;;;;;;31.65;19.38;;;3.50;56.70;;;;;;4935459;28;114500;-79
2023/03/04 12:26:29;;;;;;;38.72;21.27;;;3.50;56.10;;;;;;4982857;28;115254;-79
2023/03/04 12:29:37;;;;;;;36.75;20.50;;;3.50;56.20;;;;;;4988846;28;114727;-78
2023/03/04 12:32:16;;;;;;;37.80;21.20;;;3.50;56.10;;;;;;4971612;28;114842;-79
2023/03/04 12:35:13;;;;;;;37.65;20.85;;;3.50;56.10;;;;;;4964789;28;115058;-80
2023/03/04 12:38:19;;;;;;;34.33;20.65;;;3.60;55.80;;;;;;4949037;28;116319;-78
2023/03/04 12:41:03;;;;;;;32.17;18.48;;;3.60;55.80;;;;;;4950450;28;114756;-79
2023/03/04 12:43:48;;;;;;;31.13;18.88;;;3.60;55.70;;;;;;4977815;28;114476;-79
2023/03/04 12:47:21;;;;;;;33.20;18.67;;;3.70;55.50;;;;;;4970383;28;117332;-79
2023/03/04 12:49:57;;;;;;;33.83;18.67;;;3.80;55.40;;;;;;4997153;28;115253;-78